Time;durP1;ratioP1;P1;durP2;ratioP2;P2;SDS_P1;SDS_P2;PMS_P1;PMS_P2;Temp;Humidity;BMP_temperature;BMP_pressure;BME280_temperature;BME280_humidity;BME280_pressure;Samples;Min_cycle;Max_cycle;Signal;HPM_P1;HPM_P2
2022/12/30 00:01:14;;;;;;;87.10;34.23;;;;;;;1.12;84.20;99690.39;1602845;88;21066;-76
2022/12/30 00:03:42;;;;;;;82.88;33.95;;;;;;;1.10;83.58;99698.45;1623001;88;21031;-77
2022/12/30 00:06:16;;;;;;;91.70;37.45;;;;;;;1.01;83.74;99700.80;1618167;87;21053;-77
2022/12/30 00:08:49;;;;;;;97.82;36.00;;;;;;;1.00;84.22;99697.38;1622007;88;21828;-77
2022/12/30 00:11:29;;;;;;;104.10;38.33;;;;;;;0.99;84.54;99696.52;1619747;88;21565;-77
2022/12/30 00:33:06;;;;;;;121.25;44.23;;;;;;;0.97;84.62;99704.98;1623086;88;21102;-76
2022/12/30 00:34:35;;;;;;;135.70;48.38;;;;;;;1.04;85.32;99713.69;1620955;88;21061;-77
2022/12/30 00:37:04;;;;;;;119.55;45.90;;;;;;;1.05;84.47;99707.72;1615764;87;21023;-76
2022/12/30 00:39:31;;;;;;;115.92;45.25;;;;;;;0.99;84.60;99719.96;1626352;88;21013;-77
2022/12/30 00:44:45;;;;;;;112.97;45.30;;;;;;;1.02;85.23;99712.78;1627285;88;21066;-77
2022/12/30 00:47:13;;;;;;;124.92;44.93;;;;;;;1.04;85.12;99720.09;1629233;87;21576;-76
2022/12/30 00:57:58;;;;;;;107.55;42.88;;;;;;;1.07;85.05;99716.30;1631816;88;21033;-76
2022/12/30 01:00:25;;;;;;;106.70;42.08;;;;;;;1.12;85.37;99708.32;1625254;87;21058;-76
2022/12/30 01:02:54;;;;;;;100.53;41.58;;;;;;;1.12;84.51;99703.20;1631826;88;21037;-76
2022/12/30 01:05:21;;;;;;;97.62;39.05;;;;;;;1.08;84.92;99703.96;1621234;87;21088;-77
2022/12/30 01:07:49;;;;;;;87.35;35.75;;;;;;;1.10;85.03;99703.58;1631896;87;21029;-76
2022/12/30 01:10:17;;;;;;;85.55;34.92;;;;;;;1.04;84.74;99697.05;1624324;87;20997;-76
2022/12/30 01:12:45;;;;;;;81.15;35.08;;;;;;;1.04;85.08;99691.92;1631875;87;21904;-76
2022/12/30 01:15:13;;;;;;;85.53;35.15;;;;;;;1.04;85.02;99690.64;1625209;86;21534;-77
2022/12/30 01:17:40;;;;;;;84.20;35.80;;;;;;;1.04;85.10;99694.48;1613987;88;21602;-76
2022/12/30 01:20:09;;;;;;;83.35;35.85;;;;;;;1.03;84.96;99693.59;1626997;87;21050;-76
2022/12/30 01:22:37;;;;;;;89.10;36.93;;;;;;;1.05;85.33;99687.23;1628867;88;21105;-76
2022/12/30 01:25:06;;;;;;;92.57;35.90;;;;;;;1.05;84.98;99689.80;1627806;87;21032;-76
2022/12/30 01:27:33;;;;;;;99.72;37.73;;;;;;;1.04;85.13;99690.64;1627453;88;21074;-76
2022/12/30 01:30:01;;;;;;;94.03;38.35;;;;;;;1.04;84.91;99681.68;1628839;87;22158;-77
2022/12/30 01:32:30;;;;;;;106.32;37.88;;;;;;;1.03;85.56;99687.61;1624981;88;21069;-76
2022/12/30 01:34:58;;;;;;;93.40;37.28;;;;;;;1.04;85.34;99690.64;1630484;87;21629;-76
2022/12/30 01:37:26;;;;;;;92.97;37.83;;;;;;;1.03;85.26;99688.89;1626088;88;21625;-77
2022/12/30 01:39:53;;;;;;;86.20;35.13;;;;;;;1.02;85.37;99684.62;1630736;88;22250;-77
2022/12/30 01:42:30;;;;;;;86.82;34.85;;;;;;;1.03;85.17;99682.07;1623767;87;21106;-77
2022/12/30 01:45:06;;;;;;;85.97;34.00;;;;;;;1.06;85.58;99681.30;1626824;88;21077;-76
2022/12/30 01:47:58;;;;;;;85.07;32.70;;;;;;;1.11;85.47;99680.97;1623473;87;22112;-76
2022/12/30 01:50:31;;;;;;;80.42;31.42;;;;;;;1.13;85.45;99679.30;1613322;88;21131;-76
2022/12/30 01:53:04;;;;;;;83.03;33.85;;;;;;;1.14;85.46;99670.80;1626204;87;21069;-76
2022/12/30 01:55:43;;;;;;;77.20;32.33;;;;;;;1.14;85.33;99675.92;1623296;88;21041;-76
2022/12/30 01:58:16;;;;;;;82.08;34.50;;;;;;;1.11;85.26;99673.28;1617220;87;21073;-76
2022/12/30 02:00:44;;;;;;;80.53;33.30;;;;;;;1.06;84.49;99669.77;1613657;88;21101;-77
2022/12/30 02:03:12;;;;;;;82.30;32.15;;;;;;;0.92;84.26;99669.03;1619832;87;21122;-76
2022/12/30 02:05:42;;;;;;;88.30;34.63;;;;;;;0.83;84.86;99670.52;1629719;88;21109;-76
2022/12/30 02:08:17;;;;;;;90.55;33.88;;;;;;;0.78;84.84;99670.42;1625347;87;21006;-76
2022/12/30 02:10:51;;;;;;;86.90;34.80;;;;;;;0.76;84.67;99668.23;1631895;87;21003;-76
2022/12/30 02:13:21;;;;;;;77.85;34.48;;;;;;;0.67;84.93;99670.14;1624314;87;21061;-76
2022/12/30 02:16:00;;;;;;;80.30;32.25;;;;;;;0.67;85.91;99679.53;1631942;88;21018;-76
2022/12/30 02:19:01;;;;;;;87.02;34.23;;;;;;;0.64;86.33;99678.16;1623323;87;21050;-76
2022/12/30 02:21:52;;;;;;;90.57;34.48;;;;;;;0.63;85.77;99673.89;1619555;88;21050;-76
2022/12/30 02:24:58;;;;;;;90.15;35.20;;;;;;;0.63;85.76;99679.00;1625583;87;21006;-76
2022/12/30 02:28:06;;;;;;;98.17;34.95;;;;;;;0.64;85.96;99668.81;1631920;87;21014;-76
2022/12/30 02:30:57;;;;;;;99.03;35.80;;;;;;;0.68;86.51;99668.48;1631624;88;21002;-76
2022/12/30 02:33:35;;;;;;;94.22;36.23;;;;;;;0.76;86.77;99670.38;1629098;88;21011;-76
2022/12/30 02:36:29;;;;;;;91.37;36.28;;;;;;;0.82;86.11;99678.63;1631581;88;21045;-76
2022/12/30 02:39:19;;;;;;;94.60;35.83;;;;;;;0.83;86.53;99664.97;1627632;87;20998;-77
2022/12/30 02:44:50;;;;;;;97.47;37.67;;;;;;;0.91;87.83;99664.73;1626615;87;21065;-76
2022/12/30 02:47:40;;;;;;;90.12;36.15;;;;;;;0.93;87.62;99662.21;1629733;88;21050;-76
2022/12/30 02:53:01;;;;;;;73.00;32.08;;;;;;;0.97;87.28;99662.73;1625895;87;21990;-76
2022/12/30 02:55:29;;;;;;;79.40;33.40;;;;;;;0.98;87.45;99659.36;1626772;87;21007;-76
2022/12/30 02:57:56;;;;;;;86.42;35.35;;;;;;;0.98;87.55;99657.66;1627474;87;21070;-76
2022/12/30 03:07:02;;;;;;;90.43;37.30;;;;;;;1.03;87.24;99663.29;1615789;87;21522;-76
2022/12/30 03:11:12;;;;;;;87.62;34.00;;;;;;;0.98;87.21;99666.61;1617571;88;21101;-78
2022/12/30 03:12:24;;;;;;;87.47;34.88;;;;;;;1.01;87.17;99673.91;1618330;88;21006;-76
2022/12/30 03:14:57;;;;;;;92.78;34.53;;;;;;;1.01;86.68;99676.05;1631987;87;21510;-76
2022/12/30 03:17:32;;;;;;;82.42;33.20;;;;;;;0.99;87.11;99675.15;1625838;87;21526;-76
2022/12/30 03:20:05;;;;;;;88.92;34.35;;;;;;;1.02;87.55;99673.95;1631965;87;21037;-76
2022/12/30 03:28:12;;;;;;;87.27;34.55;;;;;;;1.07;87.91;99671.48;1621252;88;21089;-76
2022/12/30 03:30:48;;;;;;;86.37;36.10;;;;;;;1.07;87.76;99686.85;1637438;87;21122;-76
2022/12/30 03:33:17;;;;;;;83.67;34.88;;;;;;;1.08;87.64;99683.47;1637522;86;21008;-76
2022/12/30 03:35:53;;;;;;;94.03;37.58;;;;;;;1.08;87.21;99668.97;1637458;87;21583;-80
2022/12/30 03:38:25;;;;;;;86.57;34.23;;;;;;;1.03;87.39;99673.11;1629814;87;21059;-76
2022/12/30 03:40:56;;;;;;;84.13;34.78;;;;;;;1.07;87.44;99681.73;1637428;87;21530;-76
2022/12/30 03:43:26;;;;;;;88.67;34.73;;;;;;;1.05;87.66;99687.23;1629722;87;21000;-76
2022/12/30 03:45:54;;;;;;;105.32;42.88;;;;;;;1.07;87.73;99686.85;1637294;86;21027;-76
2022/12/30 03:48:22;;;;;;;104.65;40.90;;;;;;;1.08;87.73;99677.93;1627086;87;21043;-76
2022/12/30 03:50:50;;;;;;;117.90;44.70;;;;;;;1.10;87.53;99683.09;1637367;86;21162;-76
2022/12/30 03:53:18;;;;;;;118.02;45.20;;;;;;;1.09;87.21;99684.77;1629766;86;21052;-76
2022/12/30 03:55:45;;;;;;;97.33;39.35;;;;;;;1.13;87.33;99690.41;1637387;86;21027;-76
2022/12/30 03:58:13;;;;;;;90.70;37.65;;;;;;;1.17;87.24;99690.06;1630628;86;21027;-76
2022/12/30 04:00:40;;;;;;;108.63;41.30;;;;;;;1.21;87.17;99686.73;1617999;86;21036;-76
2022/12/30 04:03:07;;;;;;;96.37;40.23;;;;;;;1.17;87.08;99684.94;1634639;86;21548;-76
2022/12/30 04:05:35;;;;;;;94.70;37.75;;;;;;;1.23;87.16;99681.23;1635575;87;21079;-76
2022/12/30 04:08:03;;;;;;;100.10;39.70;;;;;;;1.23;86.89;99686.35;1635553;86;21043;-75
2022/12/30 04:10:30;;;;;;;94.45;40.17;;;;;;;1.28;87.00;99683.91;1636181;87;21512;-76
2022/12/30 04:12:58;;;;;;;83.07;36.70;;;;;;;1.28;86.93;99687.75;1637370;87;20992;-76
2022/12/30 04:15:25;;;;;;;97.17;40.12;;;;;;;1.31;86.96;99689.09;1624106;86;21019;-76
2022/12/30 04:17:53;;;;;;;95.62;39.65;;;;;;;1.34;87.04;99680.20;1637423;86;21523;-76
2022/12/30 04:20:20;;;;;;;92.33;39.48;;;;;;;1.38;87.02;99690.53;1625305;86;21519;-77
2022/12/30 04:22:48;;;;;;;98.55;39.18;;;;;;;1.40;86.87;99673.92;1636437;87;21516;-76
2022/12/30 04:25:15;;;;;;;86.95;35.75;;;;;;;1.43;86.93;99670.55;1634637;86;21971;-76
2022/12/30 04:27:43;;;;;;;92.42;37.40;;;;;;;1.43;86.57;99682.08;1635303;87;21035;-76
2022/12/30 04:30:12;;;;;;;93.47;38.15;;;;;;;1.43;86.57;99680.80;1628852;86;21680;-76
2022/12/30 04:32:40;;;;;;;86.25;35.98;;;;;;;1.41;86.90;99680.77;1623711;88;21582;-76
2022/12/30 04:35:09;;;;;;;88.52;36.58;;;;;;;1.41;86.39;99683.75;1614515;87;21514;-77
2022/12/30 04:37:36;;;;;;;166.97;63.73;;;;;;;1.39;86.81;99678.19;1630754;88;22329;-77
2022/12/30 04:40:05;;;;;;;95.87;41.42;;;;;;;1.39;86.66;99683.31;1627540;87;21113;-76
2022/12/30 04:42:33;;;;;;;90.87;37.13;;;;;;;1.38;86.95;99678.15;1623220;88;21625;-76
2022/12/30 04:45:00;;;;;;;95.38;41.53;;;;;;;1.38;86.85;99683.27;1629044;87;21030;-76
2022/12/30 04:47:29;;;;;;;94.28;38.50;;;;;;;1.41;86.80;99686.31;1625116;88;21045;-76
2022/12/30 04:49:57;;;;;;;75.52;35.70;;;;;;;1.43;86.89;99681.66;1630572;87;21105;-76
2022/12/30 04:52:25;;;;;;;80.30;34.08;;;;;;;1.49;87.31;99679.64;1623102;88;21053;-76
2022/12/30 04:54:53;;;;;;;80.97;33.83;;;;;;;1.57;87.40;99688.35;1630451;88;21585;-76
2022/12/30 04:57:20;;;;;;;93.65;37.10;;;;;;;1.57;86.73;99688.35;1622504;86;21069;-76
2022/12/30 04:59:48;;;;;;;87.70;35.58;;;;;;;1.58;86.83;99686.25;1621548;88;21093;-76
2022/12/30 05:02:16;;;;;;;79.90;34.45;;;;;;;1.59;86.82;99693.09;1622864;87;21100;-76
2022/12/30 05:04:43;;;;;;;84.83;34.98;;;;;;;1.62;87.05;99694.45;1630654;87;21041;-76
2022/12/30 05:07:11;;;;;;;77.10;34.80;;;;;;;1.63;86.81;99695.30;1624057;86;21077;-76
2022/12/30 05:09:38;;;;;;;80.10;34.15;;;;;;;1.64;86.70;99698.33;1624987;88;21327;-76
2022/12/30 05:12:07;;;;;;;78.55;35.95;;;;;;;1.68;86.64;99695.85;1625949;87;21117;-76
2022/12/30 05:14:34;;;;;;;79.95;35.45;;;;;;;1.68;86.64;99698.41;1615860;88;21013;-77
2022/12/30 05:17:02;;;;;;;85.45;35.85;;;;;;;1.71;86.73;99692.09;1627760;87;21074;-76
2022/12/30 05:19:29;;;;;;;82.30;35.25;;;;;;;1.67;86.15;99689.41;1628702;87;21061;-76
2022/12/30 05:21:57;;;;;;;93.77;40.63;;;;;;;1.67;86.82;99691.58;1628197;86;21073;-76
2022/12/30 05:27:00;;;;;;;92.92;38.45;;;;;;;1.63;86.49;99697.44;1603240;87;21102;-76
2022/12/30 05:29:27;;;;;;;85.12;35.52;;;;;;;1.59;86.46;99699.11;1625248;87;21143;-76
2022/12/30 05:31:55;;;;;;;85.62;34.45;;;;;;;1.60;86.67;99698.68;1636201;86;21106;-75
2022/12/30 05:34:24;;;;;;;81.95;35.23;;;;;;;1.60;86.92;99701.24;1631849;87;21803;-75
2022/12/30 05:36:51;;;;;;;82.30;35.60;;;;;;;1.62;86.97;99697.02;1636102;87;21083;-76
2022/12/30 05:39:19;;;;;;;90.80;36.53;;;;;;;1.65;87.05;99704.78;1625184;87;21091;-76
2022/12/30 05:41:46;;;;;;;88.35;36.42;;;;;;;1.69;87.03;99701.84;1634479;87;21075;-76
2022/12/30 05:44:14;;;;;;;89.67;35.70;;;;;;;1.70;87.00;99704.44;1628622;87;21570;-76
2022/12/30 05:46:41;;;;;;;86.08;35.33;;;;;;;1.74;87.14;99700.25;1636198;86;21642;-76
2022/12/30 05:49:09;;;;;;;88.37;34.05;;;;;;;1.73;86.67;99705.80;1631258;86;21630;-76
2022/12/30 05:51:37;;;;;;;83.82;35.13;;;;;;;1.73;86.84;99708.75;1630489;87;21621;-76
2022/12/30 05:54:04;;;;;;;78.35;35.48;;;;;;;1.74;86.48;99707.94;1629198;87;21641;-76
2022/12/30 05:56:32;;;;;;;97.25;39.48;;;;;;;1.76;86.71;99702.00;1634623;87;21066;-76
2022/12/30 05:59:00;;;;;;;88.37;37.63;;;;;;;1.81;86.56;99708.52;1634191;87;21094;-75
2022/12/30 06:01:27;;;;;;;82.72;35.63;;;;;;;1.84;86.47;99706.42;1630808;87;21139;-75
2022/12/30 06:03:56;;;;;;;75.47;31.27;;;;;;;1.86;86.19;99709.88;1622910;88;21050;-76
2022/12/30 06:06:24;;;;;;;66.65;30.50;;;;;;;1.87;86.10;99700.05;1613528;88;21083;-77
2022/12/30 06:08:51;;;;;;;69.22;30.90;;;;;;;1.85;85.89;99710.31;1621542;88;21075;-76
2022/12/30 06:11:19;;;;;;;79.65;33.45;;;;;;;1.81;85.77;99718.77;1621072;88;21499;-76
2022/12/30 06:13:47;;;;;;;78.65;33.35;;;;;;;1.79;85.93;99717.84;1619014;88;21028;-76
2022/12/30 06:16:14;;;;;;;76.50;33.18;;;;;;;1.83;86.22;99712.37;1617213;88;21051;-76
2022/12/30 06:18:41;;;;;;;78.10;34.78;;;;;;;1.84;86.16;99717.96;1619675;88;21317;-76
2022/12/30 06:21:09;;;;;;;85.25;35.17;;;;;;;1.84;86.04;99711.55;1618605;88;21143;-76
2022/12/30 06:23:36;;;;;;;78.70;33.10;;;;;;;1.83;86.24;99717.11;1625092;88;21583;-76
2022/12/30 06:26:04;;;;;;;79.17;33.55;;;;;;;1.86;86.30;99732.53;1620897;87;21091;-75
2022/12/30 06:28:32;;;;;;;82.15;34.00;;;;;;;1.81;85.98;99728.14;1618162;88;21138;-76
2022/12/30 06:31:00;;;;;;;83.12;34.30;;;;;;;1.70;86.04;99710.84;1609456;88;21143;-76
2022/12/30 06:33:27;;;;;;;84.55;36.75;;;;;;;1.76;86.52;99728.91;1637841;87;21140;-75
2022/12/30 06:35:55;;;;;;;91.65;37.98;;;;;;;1.81;86.55;99728.14;1637626;87;21164;-76
2022/12/30 06:38:22;;;;;;;81.28;35.85;;;;;;;1.84;86.79;99730.78;1637698;87;21124;-76
2022/12/30 06:40:50;;;;;;;83.97;37.05;;;;;;;1.88;87.00;99733.85;1637749;87;21084;-76
2022/12/30 06:43:18;;;;;;;79.17;31.70;;;;;;;1.90;86.73;99735.61;1637658;87;21141;-76
2022/12/30 06:45:46;;;;;;;83.30;32.00;;;;;;;1.92;86.99;99735.64;1637699;87;21074;-75
2022/12/30 06:48:14;;;;;;;66.35;29.80;;;;;;;1.93;86.87;99739.53;1637804;87;21374;-75
2022/12/30 06:50:42;;;;;;;81.53;34.48;;;;;;;1.94;86.44;99743.80;1637742;87;21026;-76
2022/12/30 06:53:09;;;;;;;84.85;38.23;;;;;;;1.93;86.32;99747.61;1637828;87;21092;-76
2022/12/30 06:55:37;;;;;;;80.65;36.77;;;;;;;1.88;86.47;99748.81;1637893;87;21114;-76
2022/12/30 06:58:06;;;;;;;78.85;36.50;;;;;;;1.88;86.46;99745.39;1637855;87;21129;-76
2022/12/30 07:00:34;;;;;;;69.97;31.85;;;;;;;1.88;86.49;99747.95;1637973;87;21581;-76
2022/12/30 07:03:02;;;;;;;77.40;34.85;;;;;;;1.93;86.81;99749.78;1637913;87;22073;-76
2022/12/30 07:05:30;;;;;;;79.25;35.70;;;;;;;1.96;86.50;99752.81;1637936;87;21645;-76
2022/12/30 07:07:57;;;;;;;102.75;43.55;;;;;;;1.96;86.38;99752.81;1637951;87;21085;-76
2022/12/30 07:10:25;;;;;;;82.88;34.33;;;;;;;2.00;86.80;99749.48;1638060;87;21053;-76
2022/12/30 07:12:52;;;;;;;82.37;36.53;;;;;;;2.01;86.37;99752.90;1638028;87;21129;-76
2022/12/30 07:15:20;;;;;;;74.90;33.78;;;;;;;2.02;86.35;99749.52;1638086;87;21116;-76
2022/12/30 07:17:48;;;;;;;78.47;34.65;;;;;;;2.01;86.58;99753.79;1638057;87;21089;-76
2022/12/30 07:20:15;;;;;;;76.15;34.60;;;;;;;2.04;86.68;99760.67;1638193;87;21057;-76
2022/12/30 07:22:43;;;;;;;75.87;34.20;;;;;;;2.04;86.42;99755.11;1638205;87;21339;-76
2022/12/30 07:25:12;;;;;;;80.25;33.42;;;;;;;2.03;86.85;99747.38;1638038;87;21026;-76
2022/12/30 07:27:39;;;;;;;75.80;33.73;;;;;;;2.09;86.96;99752.62;1612782;86;22222;-76
2022/12/30 07:30:08;;;;;;;73.30;33.55;;;;;;;2.10;86.67;99747.53;1638130;86;21617;-76
2022/12/30 07:32:36;;;;;;;71.53;33.63;;;;;;;2.06;86.58;99750.88;1638329;87;21089;-76
2022/12/30 07:35:07;;;;;;;71.97;33.50;;;;;;;2.05;86.94;99751.73;1638110;87;21046;-76
2022/12/30 07:37:35;;;;;;;77.30;33.23;;;;;;;2.14;87.32;99768.56;1637957;87;21093;-77
2022/12/30 07:40:04;;;;;;;90.47;33.50;;;;;;;2.19;87.10;99767.39;1638857;87;21133;-76
2022/12/30 07:42:32;;;;;;;76.72;33.18;;;;;;;2.26;87.19;99764.52;1638548;87;21084;-76
2022/12/30 07:45:00;;;;;;;79.00;33.53;;;;;;;2.26;87.04;99758.10;1637894;87;21037;-77
2022/12/30 07:47:32;;;;;;;74.75;32.30;;;;;;;2.28;86.83;99753.44;1634351;87;21054;-77
2022/12/30 07:50:01;;;;;;;80.12;33.08;;;;;;;2.31;87.29;99753.94;1628771;87;21105;-76
2022/12/30 07:52:28;;;;;;;77.67;32.93;;;;;;;2.37;87.12;99761.32;1628053;88;21137;-76
2022/12/30 07:54:56;;;;;;;82.22;34.18;;;;;;;2.40;86.87;99769.48;1627730;87;21054;-76
2022/12/30 07:57:24;;;;;;;71.42;32.48;;;;;;;2.36;86.86;99765.13;1627628;88;21462;-76
2022/12/30 07:59:51;;;;;;;77.47;34.73;;;;;;;2.40;87.14;99764.35;1627413;88;21049;-76
2022/12/30 08:02:19;;;;;;;83.97;35.63;;;;;;;2.47;87.16;99763.64;1627387;88;21174;-76
2022/12/30 08:04:46;;;;;;;79.90;34.75;;;;;;;2.55;87.00;99771.05;1627426;87;21343;-76
2022/12/30 08:07:18;;;;;;;83.97;37.30;;;;;;;2.58;86.88;99771.52;1627342;88;21114;-76
2022/12/30 08:09:46;;;;;;;77.97;34.60;;;;;;;2.66;86.96;99775.52;1635611;87;21002;-76
2022/12/30 08:12:14;;;;;;;83.20;35.80;;;;;;;2.75;86.88;99769.27;1637962;87;21065;-76
2022/12/30 08:14:41;;;;;;;100.18;42.45;;;;;;;2.83;86.70;99770.26;1632698;87;21064;-76
2022/12/30 08:17:08;;;;;;;93.20;39.42;;;;;;;2.93;86.60;99778.98;1613060;87;21073;-76
2022/12/30 08:19:36;;;;;;;108.32;45.70;;;;;;;2.98;86.37;99774.77;1628669;87;21358;-76
2022/12/30 08:22:04;;;;;;;87.90;40.80;;;;;;;3.06;86.39;99782.17;1631231;87;21107;-76
2022/12/30 08:24:31;;;;;;;83.37;38.70;;;;;;;3.10;86.25;99784.38;1628682;87;21060;-76
2022/12/30 08:26:59;;;;;;;83.12;37.48;;;;;;;3.19;86.21;99792.25;1621057;88;21058;-76
2022/12/30 08:29:26;;;;;;;85.75;36.93;;;;;;;3.25;85.91;99790.20;1629888;87;21164;-77
2022/12/30 08:31:59;;;;;;;83.82;36.50;;;;;;;3.36;85.81;99789.92;1614256;87;21078;-76
2022/12/30 08:34:26;;;;;;;88.80;36.98;;;;;;;3.42;85.96;99785.30;1603460;88;21020;-76
2022/12/30 08:36:54;;;;;;;87.60;38.70;;;;;;;3.47;85.59;99788.81;1610469;88;21065;-76
2022/12/30 08:39:22;;;;;;;81.22;35.35;;;;;;;3.56;85.83;99778.64;1604895;88;21012;-77
2022/12/30 08:41:49;;;;;;;80.55;35.20;;;;;;;3.66;85.75;99778.35;1608966;88;21125;-77
2022/12/30 08:44:17;;;;;;;80.47;34.43;;;;;;;3.75;85.71;99783.63;1607887;88;21047;-77
2022/12/30 08:46:45;;;;;;;74.32;34.58;;;;;;;3.73;85.25;99784.89;1607494;88;21092;-74
2022/12/30 08:49:13;;;;;;;64.27;32.88;;;;;;;3.78;85.04;99791.41;1618408;88;21062;-75
2022/12/30 08:51:41;;;;;;;66.40;32.13;;;;;;;3.86;85.03;99791.08;1611089;88;21102;-76
2022/12/30 08:54:09;;;;;;;77.25;32.90;;;;;;;3.92;84.69;99791.55;1612202;88;21096;-76
2022/12/30 08:56:39;;;;;;;78.72;34.55;;;;;;;3.93;84.59;99790.73;1606737;88;21106;-76
2022/12/30 08:59:10;;;;;;;78.22;33.18;;;;;;;3.94;84.57;99788.18;1568923;91;20972;-76
2022/12/30 09:01:40;;;;;;;78.07;34.48;;;;;;;3.98;84.57;99785.23;1571457;91;21041;-77
2022/12/30 09:04:09;;;;;;;71.90;33.42;;;;;;;4.00;84.71;99779.69;1614255;88;21670;-76
2022/12/30 09:06:40;;;;;;;81.97;36.65;;;;;;;4.04;84.71;99789.56;1613777;88;21018;-76
2022/12/30 09:09:10;;;;;;;71.37;36.65;;;;;;;4.12;84.69;99789.27;1610094;88;21038;-77
2022/12/30 09:14:12;;;;;;;90.30;41.37;;;;;;;4.27;84.68;99776.98;1829009;77;22161;-75
2022/12/30 09:16:39;;;;;;;90.90;41.60;;;;;;;4.28;84.67;99769.72;1813622;76;21015;-76
2022/12/30 09:19:06;;;;;;;88.42;43.73;;;;;;;4.35;84.58;99767.20;1823413;78;20981;-75
2022/12/30 09:21:33;;;;;;;110.83;54.77;;;;;;;4.41;84.66;99765.12;1832692;78;21604;-75
2022/12/30 09:24:00;;;;;;;119.05;61.68;;;;;;;4.44;84.33;99768.17;1832072;78;20985;-76
2022/12/30 09:26:28;;;;;;;113.90;57.60;;;;;;;4.48;84.52;99766.92;1832732;78;21032;-76
2022/12/30 09:28:55;;;;;;;116.93;59.42;;;;;;;4.49;84.36;99776.36;1832739;78;22151;-76
2022/12/30 09:31:22;;;;;;;109.20;57.93;;;;;;;4.55;84.14;99773.84;1832564;78;21227;-75
2022/12/30 09:33:48;;;;;;;115.05;56.58;;;;;;;4.64;83.87;99771.80;1832724;78;20986;-75
2022/12/30 09:36:15;;;;;;;102.95;54.35;;;;;;;4.71;83.89;99765.84;1832570;78;21035;-76
2022/12/30 09:38:42;;;;;;;115.25;52.05;;;;;;;4.76;83.67;99762.89;1832379;78;20990;-76
2022/12/30 09:44:45;;;;;;;88.40;46.08;;;;;;;4.90;83.50;99763.02;1791335;79;21503;-76
2022/12/30 09:47:29;;;;;;;89.07;44.98;;;;;;;5.00;83.16;99763.96;1782344;80;21587;-76
2022/12/30 09:50:05;;;;;;;;;;;;;;;5.05;83.01;99760.98;1797418;79;20979;-75
2022/12/30 09:52:54;;;;;;;69.82;34.48;;;;;;;5.11;82.35;99757.19;1800891;79;20156;-76
2022/12/30 09:55:28;;;;;;;70.72;33.10;;;;;;;5.13;82.42;99754.20;1798065;79;21043;-76
2022/12/30 09:58:03;;;;;;;74.35;33.90;;;;;;;5.19;82.95;99761.08;1814349;79;20942;-75
2022/12/30 10:00:34;;;;;;;72.95;36.25;;;;;;;5.27;83.40;99753.41;1794688;79;20983;-75
2022/12/30 10:03:17;;;;;;;91.50;42.03;;;;;;;5.31;83.58;99748.30;1817139;79;20974;-76
2022/12/30 10:05:55;;;;;;;93.92;40.28;;;;;;;5.34;83.65;99751.32;1803084;79;20909;-75
2022/12/30 10:08:39;;;;;;;80.28;39.10;;;;;;;5.38;83.68;99753.92;1810472;79;20993;-75
2022/12/30 10:11:30;;;;;;;79.30;36.98;;;;;;;5.41;83.67;99747.91;1813665;76;20965;-75
2022/12/30 10:14:24;;;;;;;76.90;37.05;;;;;;;5.46;83.74;99750.10;1815335;78;21060;-75
2022/12/30 10:16:59;;;;;;;78.60;35.30;;;;;;;5.54;84.01;99745.85;1761394;78;21056;-76
2022/12/30 10:19:50;;;;;;;81.75;38.95;;;;;;;5.64;84.22;99746.77;1826558;78;21054;-75
2022/12/30 10:22:43;;;;;;;84.17;39.27;;;;;;;5.72;84.04;99743.80;1782497;79;21016;-76
2022/12/30 10:25:36;;;;;;;83.65;41.75;;;;;;;5.78;84.08;99750.27;1755241;79;21023;-76
2022/12/30 10:28:04;;;;;;;85.30;40.85;;;;;;;5.85;83.82;99742.15;1768158;81;21555;-76
2022/12/30 10:30:38;;;;;;;91.67;43.42;;;;;;;5.86;83.95;99752.03;1771129;79;21027;-76
2022/12/30 10:33:15;;;;;;;70.72;35.48;;;;;;;5.90;83.89;99749.47;1778870;79;20989;-76
2022/12/30 10:35:43;;;;;;;65.37;29.23;;;;;;;5.92;83.94;99751.63;1795825;78;21454;-76
2022/12/30 10:38:15;;;;;;;50.58;24.15;;;;;;;5.95;83.84;99734.91;1771006;79;21528;-76
2022/12/30 10:41:09;;;;;;;43.23;21.93;;;;;;;6.03;83.83;99740.11;1771466;81;20965;-76
2022/12/30 10:44:16;;;;;;;47.25;22.35;;;;;;;6.05;83.35;99740.97;1771194;80;20984;-76
2022/12/30 10:47:09;;;;;;;43.48;21.55;;;;;;;6.12;83.19;99731.52;1794036;78;21725;-76
2022/12/30 10:49:53;;;;;;;48.80;21.77;;;;;;;6.17;83.20;99733.26;1791786;79;20964;-76
2022/12/30 10:52:20;;;;;;;47.15;23.75;;;;;;;6.16;83.05;99727.65;1827360;78;20977;-76
2022/12/30 10:54:48;;;;;;;43.48;22.35;;;;;;;6.25;83.52;99731.14;1814936;78;21043;-76
2022/12/30 10:57:19;;;;;;;42.70;21.45;;;;;;;6.32;83.57;99724.67;1752314;79;20961;-76
2022/12/30 10:59:48;;;;;;;47.27;22.15;;;;;;;6.39;83.75;99722.98;1815212;78;20997;-76
2022/12/30 11:02:32;;;;;;;51.55;26.65;;;;;;;6.49;84.18;99722.14;1804029;78;20953;-76
2022/12/30 11:05:00;;;;;;;53.50;28.00;;;;;;;6.59;84.42;99713.13;1769273;79;21034;-76
2022/12/30 11:07:27;;;;;;;55.15;26.68;;;;;;;6.61;83.77;99712.25;1784130;79;21000;-76
2022/12/30 11:09:53;;;;;;;56.73;27.77;;;;;;;6.69;83.77;99708.38;1776120;79;21023;-76
2022/12/30 11:15:24;;;;;;;57.25;29.25;;;;;;;6.72;83.09;99706.64;1827954;78;21044;-76
2022/12/30 11:17:55;;;;;;;49.15;26.35;;;;;;;6.69;82.83;99705.36;1832968;78;21001;-75
2022/12/30 11:20:39;;;;;;;49.35;26.17;;;;;;;6.64;82.79;99713.97;1832865;78;21072;-76
2022/12/30 11:23:30;;;;;;;51.88;27.40;;;;;;;6.60;83.17;99707.93;1825103;78;21074;-76
2022/12/30 11:26:00;;;;;;;50.15;26.23;;;;;;;6.54;83.08;99703.61;1775224;80;21365;-75
2022/12/30 11:28:35;;;;;;;51.58;26.42;;;;;;;6.48;83.43;99707.48;1832651;78;21462;-76
2022/12/30 11:31:09;;;;;;;52.03;25.02;;;;;;;6.42;84.22;99706.63;1831990;78;21517;-75
2022/12/30 11:33:51;;;;;;;47.53;25.35;;;;;;;6.37;84.53;99708.77;1800503;78;21048;-76
2022/12/30 11:36:32;;;;;;;48.68;25.43;;;;;;;6.38;84.04;99707.90;1829499;78;20966;-77
2022/12/30 11:39:09;;;;;;;46.65;22.62;;;;;;;6.38;84.31;99710.92;1800393;78;21056;-76
2022/12/30 11:41:52;;;;;;;43.23;23.55;;;;;;;6.33;85.07;99704.91;1819455;76;20984;-76
2022/12/30 11:44:32;;;;;;;48.13;22.27;;;;;;;6.37;85.08;99698.88;1799063;78;21047;-77
2022/12/30 11:47:09;;;;;;;40.52;21.00;;;;;;;6.40;85.36;99700.59;1829354;78;20946;-77
2022/12/30 11:49:50;;;;;;;46.85;22.35;;;;;;;6.44;85.61;99700.59;1829399;78;21067;-76
2022/12/30 11:52:22;;;;;;;53.13;22.10;;;;;;;6.49;85.96;99706.64;1832452;78;21041;-76
2022/12/30 11:54:54;;;;;;;42.70;22.00;;;;;;;6.54;86.79;99699.73;1831531;78;21014;-75
2022/12/30 11:57:34;;;;;;;51.80;25.17;;;;;;;6.60;86.70;99703.20;1828791;76;20942;-76
2022/12/30 12:00:18;;;;;;;54.75;26.27;;;;;;;6.68;86.88;99704.92;1805972;77;21035;-76
2022/12/30 12:02:49;;;;;;;57.48;26.90;;;;;;;6.66;86.88;99694.16;1798407;78;20974;-76
2022/12/30 12:05:24;;;;;;;53.25;27.48;;;;;;;6.68;86.90;99687.27;1792893;79;20969;-76
2022/12/30 12:07:55;;;;;;;57.17;27.00;;;;;;;6.69;86.44;99683.41;1814196;78;20946;-76
2022/12/30 12:10:27;;;;;;;61.88;29.23;;;;;;;6.69;86.53;99681.26;1765849;79;21012;-76
2022/12/30 12:13:14;;;;;;;66.45;32.60;;;;;;;6.68;87.20;99673.91;1821838;78;22290;-76
2022/12/30 12:15:47;;;;;;;68.50;32.80;;;;;;;6.70;86.31;99672.19;1820138;78;20966;-76
2022/12/30 12:18:22;;;;;;;61.25;31.87;;;;;;;6.74;86.05;99676.93;1841206;78;21008;-76
2022/12/30 12:21:16;;;;;;;58.70;29.52;;;;;;;6.74;87.51;99682.09;1835002;78;21454;-76
2022/12/30 12:24:21;;;;;;;64.62;31.48;;;;;;;6.75;86.92;99678.67;1840393;77;21057;-75
2022/12/30 12:27:05;;;;;;;62.62;27.25;;;;;;;6.78;88.05;99679.94;1841541;76;21024;-76
2022/12/30 12:29:34;;;;;;;56.92;27.95;;;;;;;6.81;87.97;99682.54;1837904;76;21021;-76
2022/12/30 12:32:06;;;;;;;54.42;27.37;;;;;;;6.86;87.01;99680.80;1837593;78;21829;-76
2022/12/30 12:34:50;;;;;;;49.20;23.20;;;;;;;6.91;87.40;99670.47;1840273;78;21009;-76
2022/12/30 12:37:58;;;;;;;45.00;22.00;;;;;;;6.99;88.95;99675.64;1819085;78;20996;-76
2022/12/30 12:40:46;;;;;;;45.23;21.12;;;;;;;7.07;89.00;99671.31;1842198;78;20956;-76
2022/12/30 12:43:36;;;;;;;39.40;21.70;;;;;;;7.15;88.63;99673.01;1833701;76;21004;-76
2022/12/30 12:46:23;;;;;;;36.98;20.10;;;;;;;7.28;88.02;99662.22;1797702;78;21017;-76